Airport ID:KO69
Update Time (UTC):16/05/2021 13:04
Wind Speed (Knots):3
Wind Direction (Magnetic):210
Temperature (°C):10
Dew Point (°C):8
Humidity (%):86
Altimeter (inHg):29.92
Density Altitude (Feet):
Visibility:10+
Clouds (Hundreds of feet):OVC010
Present Weather:
METAR:METAR KO69 161300Z AUTO 00000KT 10SM OVC010 10/08 A2992 RMK A01

The data displayed is for advisory purposes only and is not to be used for flight planning or operations.